sensor_id;sensor_type;location;lat;lon;timestamp;pressure;altitude;pressure_sealevel;temperature;humidity
46638;BME280;32365;46.938;7.390;2022-09-30T06:34:38;94523.78;;;7.30;100.00
46638;BME280;32365;46.938;7.390;2022-09-30T06:37:05;94531.44;;;7.25;100.00
46638;BME280;32365;46.938;7.390;2022-09-30T06:39:31;94533.69;;;7.21;100.00
46638;BME280;32365;46.938;7.390;2022-09-30T06:41:58;94536.69;;;7.18;100.00
46638;BME280;32365;46.938;7.390;2022-09-30T06:44:24;94528.88;;;7.13;100.00
46638;BME280;32365;46.938;7.390;2022-09-30T06:46:52;94532.44;;;7.12;100.00
46638;BME280;32365;46.938;7.390;2022-09-30T06:49:18;94536.69;;;7.06;100.00
46638;BME280;32365;46.938;7.390;2022-09-30T06:51:46;94531.88;;;7.22;100.00
46638;BME280;32365;46.938;7.390;2022-09-30T06:54:15;94534.19;;;7.35;100.00
46638;BME280;32365;46.938;7.390;2022-09-30T06:56:43;94536.53;;;7.49;100.00
46638;BME280;32365;46.938;7.390;2022-09-30T06:59:10;94545.72;;;7.45;100.00
46638;BME280;32365;46.938;7.390;2022-09-30T07:01:36;94549.06;;;7.45;100.00
46638;BME280;32365;46.938;7.390;2022-09-30T07:04:03;94547.88;;;7.65;100.00
46638;BME280;32365;46.938;7.390;2022-09-30T07:06:33;94547.44;;;7.68;100.00
46638;BME280;32365;46.938;7.390;2022-09-30T07:09:01;94547.75;;;7.72;100.00
46638;BME280;32365;46.938;7.390;2022-09-30T07:11:27;94555.53;;;7.89;100.00
46638;BME280;32365;46.938;7.390;2022-09-30T07:13:54;94552.84;;;7.83;100.00
46638;BME280;32365;46.938;7.390;2022-09-30T07:16:21;94547.56;;;7.90;100.00
46638;BME280;32365;46.938;7.390;2022-09-30T07:18:50;94549.22;;;7.96;100.00
46638;BME280;32365;46.938;7.390;2022-09-30T07:21:16;94546.66;;;7.96;100.00
46638;BME280;32365;46.938;7.390;2022-09-30T07:23:43;94549.94;;;7.92;100.00
46638;BME280;32365;46.938;7.390;2022-09-30T07:26:13;94554.63;;;8.12;100.00
46638;BME280;32365;46.938;7.390;2022-09-30T07:28:40;94556.91;;;8.25;100.00
46638;BME280;32365;46.938;7.390;2022-09-30T07:31:08;94560.88;;;8.45;100.00
46638;BME280;32365;46.938;7.390;2022-09-30T07:33:36;94550.16;;;8.70;100.00
46638;BME280;32365;46.938;7.390;2022-09-30T07:36:04;94559.50;;;8.42;100.00
46638;BME280;32365;46.938;7.390;2022-09-30T07:38:33;94563.59;;;8.38;100.00
46638;BME280;32365;46.938;7.390;2022-09-30T07:41:01;94557.50;;;8.44;100.00
46638;BME280;32365;46.938;7.390;2022-09-30T07:43:30;94572.69;;;8.75;100.00
46638;BME280;32365;46.938;7.390;2022-09-30T07:46:01;94570.78;;;9.04;100.00
46638;BME280;32365;46.938;7.390;2022-09-30T07:48:27;94577.91;;;8.97;100.00
46638;BME280;32365;46.938;7.390;2022-09-30T07:51:11;94585.09;;;9.12;100.00
46638;BME280;32365;46.938;7.390;2022-09-30T07:53:38;94590.63;;;9.21;100.00
46638;BME280;32365;46.938;7.390;2022-09-30T07:56:06;94593.22;;;9.21;98.57
46638;BME280;32365;46.938;7.390;2022-09-30T07:58:34;94590.69;;;9.43;99.01
46638;BME280;32365;46.938;7.390;2022-09-30T08:01:00;94591.19;;;9.23;96.97
46638;BME280;32365;46.938;7.390;2022-09-30T08:03:27;94595.34;;;9.24;97.66
46638;BME280;32365;46.938;7.390;2022-09-30T08:05:54;94601.38;;;9.13;98.74
46638;BME280;32365;46.938;7.390;2022-09-30T08:08:20;94599.16;;;9.21;100.00
46638;BME280;32365;46.938;7.390;2022-09-30T08:10:46;94604.34;;;9.44;99.67
46638;BME280;32365;46.938;7.390;2022-09-30T08:13:13;94613.38;;;9.41;99.92
46638;BME280;32365;46.938;7.390;2022-09-30T08:15:42;94616.13;;;9.34;99.52
46638;BME280;32365;46.938;7.390;2022-09-30T08:18:08;94616.13;;;9.34;98.66
46638;BME280;32365;46.938;7.390;2022-09-30T08:20:35;94617.13;;;9.73;98.56
46638;BME280;32365;46.938;7.390;2022-09-30T08:23:01;94620.88;;;9.43;98.89
46638;BME280;32365;46.938;7.390;2022-09-30T08:25:28;94630.56;;;9.75;97.56
46638;BME280;32365;46.938;7.390;2022-09-30T08:27:54;94641.28;;;9.61;97.02
46638;BME280;32365;46.938;7.390;2022-09-30T08:30:20;94638.31;;;9.75;96.54
46638;BME280;32365;46.938;7.390;2022-09-30T08:32:49;94642.13;;;9.89;96.47
46638;BME280;32365;46.938;7.390;2022-09-30T08:35:15;94644.81;;;9.55;96.10
46638;BME280;32365;46.938;7.390;2022-09-30T08:37:42;94649.72;;;9.74;97.91
46638;BME280;32365;46.938;7.390;2022-09-30T08:40:09;94650.91;;;9.66;97.55
46638;BME280;32365;46.938;7.390;2022-09-30T08:42:46;94659.03;;;9.58;96.76
46638;BME280;32365;46.938;7.390;2022-09-30T08:45:18;94657.81;;;9.60;97.33
46638;BME280;32365;46.938;7.390;2022-09-30T08:47:46;94665.44;;;9.72;95.51
46638;BME280;32365;46.938;7.390;2022-09-30T08:50:18;94673.19;;;9.72;95.42
46638;BME280;32365;46.938;7.390;2022-09-30T08:52:48;94672.09;;;9.46;96.54
46638;BME280;32365;46.938;7.390;2022-09-30T08:55:18;94669.00;;;9.66;96.41
46638;BME280;32365;46.938;7.390;2022-09-30T08:57:45;94681.97;;;9.71;96.75
46638;BME280;32365;46.938;7.390;2022-09-30T09:00:12;94684.88;;;9.97;95.61
46638;BME280;32365;46.938;7.390;2022-09-30T09:02:42;94689.19;;;9.91;95.55
46638;BME280;32365;46.938;7.390;2022-09-30T09:05:11;94686.63;;;9.91;94.07
46638;BME280;32365;46.938;7.390;2022-09-30T09:07:44;94695.94;;;9.92;94.16
46638;BME280;32365;46.938;7.390;2022-09-30T09:10:17;94690.44;;;9.66;94.71
46638;BME280;32365;46.938;7.390;2022-09-30T09:12:52;94690.88;;;9.80;96.15
46638;BME280;32365;46.938;7.390;2022-09-30T09:15:25;94692.84;;;9.73;94.53
46638;BME280;32365;46.938;7.390;2022-09-30T09:20:39;94699.97;;;10.05;94.56
46638;BME280;32365;46.938;7.390;2022-09-30T09:23:09;94704.59;;;10.25;91.99
46638;BME280;32365;46.938;7.390;2022-09-30T09:25:37;94707.06;;;10.15;92.38
46638;BME280;32365;46.938;7.390;2022-09-30T09:28:04;94698.47;;;10.09;93.21
46638;BME280;32365;46.938;7.390;2022-09-30T09:30:33;94703.94;;;10.35;91.81
46638;BME280;32365;46.938;7.390;2022-09-30T09:33:09;94696.00;;;10.42;93.25
46638;BME280;32365;46.938;7.390;2022-09-30T09:35:42;94698.34;;;10.43;91.49
46638;BME280;32365;46.938;7.390;2022-09-30T09:38:14;94706.00;;;10.55;91.89
46638;BME280;32365;46.938;7.390;2022-09-30T09:40:55;94704.22;;;10.61;91.15
46638;BME280;32365;46.938;7.390;2022-09-30T09:43:26;94708.69;;;10.66;90.98
46638;BME280;32365;46.938;7.390;2022-09-30T09:45:56;94704.88;;;11.38;88.56
46638;BME280;32365;46.938;7.390;2022-09-30T09:48:25;94704.69;;;11.50;85.84
46638;BME280;32365;46.938;7.390;2022-09-30T09:50:55;94708.56;;;11.48;86.13
46638;BME280;32365;46.938;7.390;2022-09-30T09:53:35;94703.94;;;11.98;86.95
46638;BME280;32365;46.938;7.390;2022-09-30T09:56:04;94702.13;;;12.93;80.24
46638;BME280;32365;46.938;7.390;2022-09-30T09:58:43;94706.81;;;12.96;77.21
46638;BME280;32365;46.938;7.390;2022-09-30T10:01:30;94702.13;;;13.34;78.99
46638;BME280;32365;46.938;7.390;2022-09-30T10:04:06;94711.66;;;13.91;76.92
46638;BME280;32365;46.938;7.390;2022-09-30T10:06:41;94709.50;;;14.24;73.78
46638;BME280;32365;46.938;7.390;2022-09-30T10:09:09;94708.50;;;15.09;70.38
46638;BME280;32365;46.938;7.390;2022-09-30T10:11:47;94709.22;;;16.28;68.29
46638;BME280;32365;46.938;7.390;2022-09-30T10:14:15;94717.56;;;15.52;65.62
46638;BME280;32365;46.938;7.390;2022-09-30T10:16:41;94715.19;;;14.31;69.19
46638;BME280;32365;46.938;7.390;2022-09-30T10:19:15;94720.25;;;14.01;71.72
46638;BME280;32365;46.938;7.390;2022-09-30T10:21:43;94721.63;;;13.21;75.82
46638;BME280;32365;46.938;7.390;2022-09-30T10:24:25;94720.22;;;14.07;70.33
46638;BME280;32365;46.938;7.390;2022-09-30T10:26:53;94730.34;;;14.19;72.08
46638;BME280;32365;46.938;7.390;2022-09-30T10:29:24;94735.69;;;13.62;72.80
46638;BME280;32365;46.938;7.390;2022-09-30T10:31:52;94739.31;;;13.35;72.64
46638;BME280;32365;46.938;7.390;2022-09-30T10:34:20;94739.53;;;13.13;75.78
46638;BME280;32365;46.938;7.390;2022-09-30T10:36:50;94733.78;;;12.74;74.71
46638;BME280;32365;46.938;7.390;2022-09-30T10:39:18;94740.91;;;12.31;76.80
46638;BME280;32365;46.938;7.390;2022-09-30T10:41:47;94738.50;;;12.98;75.02
46638;BME280;32365;46.938;7.390;2022-09-30T10:44:14;94736.19;;;13.12;73.32
46638;BME280;32365;46.938;7.390;2022-09-30T10:46:41;94729.06;;;14.66;70.25
46638;BME280;32365;46.938;7.390;2022-09-30T10:49:10;94742.69;;;14.58;69.03
46638;BME280;32365;46.938;7.390;2022-09-30T10:51:37;94735.34;;;14.70;71.08
46638;BME280;32365;46.938;7.390;2022-09-30T10:54:04;94737.72;;;15.70;62.25
46638;BME280;32365;46.938;7.390;2022-09-30T10:56:38;94735.03;;;16.54;59.02
46638;BME280;32365;46.938;7.390;2022-09-30T10:59:09;94733.03;;;17.88;57.86
46638;BME280;32365;46.938;7.390;2022-09-30T11:01:42;94741.66;;;17.89;57.88
46638;BME280;32365;46.938;7.390;2022-09-30T11:04:13;94733.19;;;17.64;55.29
46638;BME280;32365;46.938;7.390;2022-09-30T11:06:42;94734.53;;;14.75;63.10
46638;BME280;32365;46.938;7.390;2022-09-30T11:09:11;94739.28;;;15.07;63.09
46638;BME280;32365;46.938;7.390;2022-09-30T11:11:40;94743.28;;;14.95;63.64
46638;BME280;32365;46.938;7.390;2022-09-30T11:14:22;94742.56;;;14.84;64.43
46638;BME280;32365;46.938;7.390;2022-09-30T11:16:55;94746.13;;;14.43;68.85
46638;BME280;32365;46.938;7.390;2022-09-30T11:19:27;94744.34;;;14.28;66.62
46638;BME280;32365;46.938;7.390;2022-09-30T11:21:56;94746.53;;;14.76;65.32
46638;BME280;32365;46.938;7.390;2022-09-30T11:24:27;94755.19;;;14.51;64.24
46638;BME280;32365;46.938;7.390;2022-09-30T11:26:56;94750.63;;;14.16;64.71
46638;BME280;32365;46.938;7.390;2022-09-30T11:29:33;94753.28;;;14.11;69.53
46638;BME280;32365;46.938;7.390;2022-09-30T11:32:04;94751.13;;;14.29;68.97
46638;BME280;32365;46.938;7.390;2022-09-30T11:34:37;94745.94;;;14.89;64.90
46638;BME280;32365;46.938;7.390;2022-09-30T11:37:08;94752.63;;;15.01;65.40
46638;BME280;32365;46.938;7.390;2022-09-30T11:39:47;94753.63;;;14.55;67.55
46638;BME280;32365;46.938;7.390;2022-09-30T11:42:18;94747.94;;;14.98;64.30
46638;BME280;32365;46.938;7.390;2022-09-30T11:44:50;94753.06;;;14.63;65.33
46638;BME280;32365;46.938;7.390;2022-09-30T11:47:26;94756.22;;;14.60;63.49
46638;BME280;32365;46.938;7.390;2022-09-30T11:50:04;94750.56;;;14.42;64.26
46638;BME280;32365;46.938;7.390;2022-09-30T11:52:37;94752.88;;;14.44;62.68
46638;BME280;32365;46.938;7.390;2022-09-30T11:55:16;94759.03;;;13.98;64.50
46638;BME280;32365;46.938;7.390;2022-09-30T11:57:47;94761.38;;;13.84;65.34
46638;BME280;32365;46.938;7.390;2022-09-30T12:00:17;94761.41;;;13.68;69.04
46638;BME280;32365;46.938;7.390;2022-09-30T12:02:45;94765.56;;;13.49;68.14
46638;BME280;32365;46.938;7.390;2022-09-30T12:05:13;94766.84;;;13.77;67.09
46638;BME280;32365;46.938;7.390;2022-09-30T12:07:43;94770.78;;;13.80;67.25
46638;BME280;32365;46.938;7.390;2022-09-30T12:10:16;94763.69;;;12.98;66.41
46638;BME280;32365;46.938;7.390;2022-09-30T12:12:44;94757.75;;;13.18;65.20
46638;BME280;32365;46.938;7.390;2022-09-30T12:15:12;94759.84;;;13.67;66.38
46638;BME280;32365;46.938;7.390;2022-09-30T12:17:42;94761.25;;;14.36;64.54
46638;BME280;32365;46.938;7.390;2022-09-30T12:20:13;94756.59;;;14.22;62.29
46638;BME280;32365;46.938;7.390;2022-09-30T12:22:43;94761.34;;;14.05;61.31
46638;BME280;32365;46.938;7.390;2022-09-30T12:25:11;94760.09;;;13.87;63.82
46638;BME280;32365;46.938;7.390;2022-09-30T12:27:40;94761.94;;;13.81;65.20
46638;BME280;32365;46.938;7.390;2022-09-30T12:30:10;94758.22;;;14.03;65.06
46638;BME280;32365;46.938;7.390;2022-09-30T12:35:33;94759.31;;;13.60;65.23
46638;BME280;32365;46.938;7.390;2022-09-30T12:38:07;94759.06;;;13.57;66.92
46638;BME280;32365;46.938;7.390;2022-09-30T12:40:42;94766.38;;;13.65;67.70
46638;BME280;32365;46.938;7.390;2022-09-30T12:48:44;94765.81;;;13.21;65.29
46638;BME280;32365;46.938;7.390;2022-09-30T12:51:21;94768.94;;;13.29;64.29
46638;BME280;32365;46.938;7.390;2022-09-30T12:53:49;94768.47;;;13.52;64.96
46638;BME280;32365;46.938;7.390;2022-09-30T12:56:19;94769.19;;;13.22;64.73
46638;BME280;32365;46.938;7.390;2022-09-30T12:58:50;94767.88;;;13.30;63.36
46638;BME280;32365;46.938;7.390;2022-09-30T13:01:20;94764.81;;;13.48;63.91
46638;BME280;32365;46.938;7.390;2022-09-30T13:03:49;94758.31;;;13.46;64.61
46638;BME280;32365;46.938;7.390;2022-09-30T13:06:16;94766.06;;;13.30;67.30
46638;BME280;32365;46.938;7.390;2022-09-30T13:08:45;94768.44;;;13.42;67.14
46638;BME280;32365;46.938;7.390;2022-09-30T13:11:30;94764.47;;;13.96;64.00
46638;BME280;32365;46.938;7.390;2022-09-30T13:13:58;94770.28;;;14.59;60.06
46638;BME280;32365;46.938;7.390;2022-09-30T13:19:18;94764.66;;;14.91;58.27
46638;BME280;32365;46.938;7.390;2022-09-30T13:21:45;94767.72;;;15.73;57.39
46638;BME280;32365;46.938;7.390;2022-09-30T13:24:12;94761.06;;;15.57;58.97
46638;BME280;32365;46.938;7.390;2022-09-30T13:26:44;94758.88;;;15.00;57.64
46638;BME280;32365;46.938;7.390;2022-09-30T13:29:34;94765.63;;;15.75;57.96
46638;BME280;32365;46.938;7.390;2022-09-30T13:32:04;94759.34;;;15.07;58.04
46638;BME280;32365;46.938;7.390;2022-09-30T13:34:31;94767.25;;;14.36;59.04
46638;BME280;32365;46.938;7.390;2022-09-30T13:36:58;94774.69;;;14.69;57.92
46638;BME280;32365;46.938;7.390;2022-09-30T13:39:27;94766.56;;;14.75;59.54
46638;BME280;32365;46.938;7.390;2022-09-30T13:41:57;94769.03;;;14.46;61.37
46638;BME280;32365;46.938;7.390;2022-09-30T13:44:30;94765.78;;;13.99;64.77
46638;BME280;32365;46.938;7.390;2022-09-30T13:46:58;94772.28;;;14.07;61.94
46638;BME280;32365;46.938;7.390;2022-09-30T13:49:31;94778.84;;;13.73;65.22
46638;BME280;32365;46.938;7.390;2022-09-30T13:51:59;94784.53;;;13.91;66.45
46638;BME280;32365;46.938;7.390;2022-09-30T13:54:28;94778.59;;;13.44;67.16
46638;BME280;32365;46.938;7.390;2022-09-30T13:56:58;94779.81;;;14.03;66.81
46638;BME280;32365;46.938;7.390;2022-09-30T13:59:28;94777.75;;;13.90;65.45
46638;BME280;32365;46.938;7.390;2022-09-30T14:02:19;94791.88;;;13.52;66.59
46638;BME280;32365;46.938;7.390;2022-09-30T14:05:04;94788.22;;;13.74;69.12
46638;BME280;32365;46.938;7.390;2022-09-30T14:07:41;94792.63;;;13.43;68.18
46638;BME280;32365;46.938;7.390;2022-09-30T14:10:19;94793.88;;;13.30;69.15
46638;BME280;32365;46.938;7.390;2022-09-30T14:12:52;94799.06;;;13.19;68.33
46638;BME280;32365;46.938;7.390;2022-09-30T14:15:27;94799.34;;;13.28;70.29
46638;BME280;32365;46.938;7.390;2022-09-30T14:20:53;94807.34;;;13.06;70.66
46638;BME280;32365;46.938;7.390;2022-09-30T14:23:26;94809.22;;;13.21;69.14
46638;BME280;32365;46.938;7.390;2022-09-30T14:25:55;94823.19;;;12.99;71.38
46638;BME280;32365;46.938;7.390;2022-09-30T14:28:25;94825.84;;;13.09;71.07
46638;BME280;32365;46.938;7.390;2022-09-30T14:30:58;94815.53;;;12.61;71.08
46638;BME280;32365;46.938;7.390;2022-09-30T14:33:34;94826.13;;;12.44;73.08
46638;BME280;32365;46.938;7.390;2022-09-30T14:36:02;94829.38;;;12.24;74.00
46638;BME280;32365;46.938;7.390;2022-09-30T14:38:33;94833.00;;;12.23;75.71
46638;BME280;32365;46.938;7.390;2022-09-30T14:41:03;94829.44;;;12.29;75.41
46638;BME280;32365;46.938;7.390;2022-09-30T14:43:34;94827.97;;;12.01;74.72
46638;BME280;32365;46.938;7.390;2022-09-30T14:46:03;94820.19;;;12.06;75.65
46638;BME280;32365;46.938;7.390;2022-09-30T14:48:31;94820.84;;;12.24;74.53
46638;BME280;32365;46.938;7.390;2022-09-30T14:51:01;94827.59;;;12.30;76.56
46638;BME280;32365;46.938;7.390;2022-09-30T14:53:30;94824.22;;;12.29;74.53
46638;BME280;32365;46.938;7.390;2022-09-30T14:55:57;94828.56;;;12.13;74.56
46638;BME280;32365;46.938;7.390;2022-09-30T14:58:26;94832.47;;;12.21;75.72
46638;BME280;32365;46.938;7.390;2022-09-30T15:00:58;94830.56;;;12.06;74.87
46638;BME280;32365;46.938;7.390;2022-09-30T15:03:25;94844.25;;;12.34;74.95
46638;BME280;32365;46.938;7.390;2022-09-30T15:05:52;94835.31;;;12.14;75.94
46638;BME280;32365;46.938;7.390;2022-09-30T15:08:19;94849.16;;;12.30;76.03
46638;BME280;32365;46.938;7.390;2022-09-30T15:10:46;94847.09;;;12.32;73.68
46638;BME280;32365;46.938;7.390;2022-09-30T15:13:13;94844.34;;;12.55;75.20
46638;BME280;32365;46.938;7.390;2022-09-30T15:15:41;94842.19;;;12.41;75.62
46638;BME280;32365;46.938;7.390;2022-09-30T15:18:21;94836.34;;;12.13;75.52
46638;BME280;32365;46.938;7.390;2022-09-30T15:20:48;94840.94;;;12.01;76.17
46638;BME280;32365;46.938;7.390;2022-09-30T15:23:17;94840.72;;;12.08;75.91
46638;BME280;32365;46.938;7.390;2022-09-30T15:25:45;94845.13;;;12.07;75.87
46638;BME280;32365;46.938;7.390;2022-09-30T15:28:11;94843.56;;;12.06;78.00
46638;BME280;32365;46.938;7.390;2022-09-30T15:30:38;94848.56;;;12.18;76.56
46638;BME280;32365;46.938;7.390;2022-09-30T15:33:13;94843.31;;;12.08;76.29
46638;BME280;32365;46.938;7.390;2022-09-30T15:35:42;94854.94;;;12.00;76.63
46638;BME280;32365;46.938;7.390;2022-09-30T15:38:09;94854.69;;;12.01;76.71
46638;BME280;32365;46.938;7.390;2022-09-30T15:40:42;94851.09;;;12.08;76.75
46638;BME280;32365;46.938;7.390;2022-09-30T15:43:14;94846.41;;;12.05;76.59
46638;BME280;32365;46.938;7.390;2022-09-30T15:45:42;94852.13;;;12.07;74.94
46638;BME280;32365;46.938;7.390;2022-09-30T15:48:30;94859.50;;;11.93;74.74
46638;BME280;32365;46.938;7.390;2022-09-30T15:50:59;94867.81;;;11.95;75.54
46638;BME280;32365;46.938;7.390;2022-09-30T15:53:28;94869.56;;;12.16;76.31
46638;BME280;32365;46.938;7.390;2022-09-30T15:55:55;94867.72;;;12.12;75.75
46638;BME280;32365;46.938;7.390;2022-09-30T15:58:32;94876.63;;;12.26;75.20
46638;BME280;32365;46.938;7.390;2022-09-30T16:01:08;94872.84;;;12.01;76.86
46638;BME280;32365;46.938;7.390;2022-09-30T16:03:37;94874.31;;;11.92;76.63
46638;BME280;32365;46.938;7.390;2022-09-30T16:06:04;94879.34;;;11.77;76.03
46638;BME280;32365;46.938;7.390;2022-09-30T16:08:31;94887.00;;;11.61;75.92
46638;BME280;32365;46.938;7.390;2022-09-30T16:11:02;94880.59;;;11.69;77.56
46638;BME280;32365;46.938;7.390;2022-09-30T16:13:28;94879.28;;;11.66;78.18
46638;BME280;32365;46.938;7.390;2022-09-30T16:15:56;94879.47;;;11.60;77.66
46638;BME280;32365;46.938;7.390;2022-09-30T16:18:24;94883.06;;;11.53;76.34
46638;BME280;32365;46.938;7.390;2022-09-30T16:20:56;94885.78;;;11.69;77.13
46638;BME280;32365;46.938;7.390;2022-09-30T16:23:26;94891.56;;;11.76;78.51
46638;BME280;32365;46.938;7.390;2022-09-30T16:28:35;94896.03;;;11.53;79.07
46638;BME280;32365;46.938;7.390;2022-09-30T16:31:02;94900.50;;;11.63;79.55
46638;BME280;32365;46.938;7.390;2022-09-30T16:33:30;94901.00;;;11.60;79.44
46638;BME280;32365;46.938;7.390;2022-09-30T16:35:58;94901.97;;;11.54;78.89
46638;BME280;32365;46.938;7.390;2022-09-30T16:38:24;94904.59;;;11.32;80.01
46638;BME280;32365;46.938;7.390;2022-09-30T16:40:51;94908.94;;;11.26;79.60
46638;BME280;32365;46.938;7.390;2022-09-30T16:43:17;94909.69;;;11.21;82.03
46638;BME280;32365;46.938;7.390;2022-09-30T16:45:43;94904.31;;;11.28;79.29
46638;BME280;32365;46.938;7.390;2022-09-30T16:48:10;94904.38;;;11.33;80.37
46638;BME280;32365;46.938;7.390;2022-09-30T16:50:40;94914.59;;;11.45;80.11
46638;BME280;32365;46.938;7.390;2022-09-30T16:53:09;94913.19;;;11.60;80.27
46638;BME280;32365;46.938;7.390;2022-09-30T16:55:36;94912.97;;;11.66;80.38
46638;BME280;32365;46.938;7.390;2022-09-30T16:58:02;94914.31;;;11.42;81.90
46638;BME280;32365;46.938;7.390;2022-09-30T17:00:29;94920.31;;;11.47;81.30
46638;BME280;32365;46.938;7.390;2022-09-30T17:02:56;94930.03;;;11.35;81.85
46638;BME280;32365;46.938;7.390;2022-09-30T17:05:23;94926.03;;;11.22;83.20
46638;BME280;32365;46.938;7.390;2022-09-30T17:07:50;94935.56;;;11.16;84.41
46638;BME280;32365;46.938;7.390;2022-09-30T17:10:20;94942.69;;;11.09;85.03
46638;BME280;32365;46.938;7.390;2022-09-30T17:12:47;94930.19;;;11.01;86.16
46638;BME280;32365;46.938;7.390;2022-09-30T17:15:14;94938.84;;;10.89;86.97
46638;BME280;32365;46.938;7.390;2022-09-30T17:17:41;94935.22;;;10.68;88.31
46638;BME280;32365;46.938;7.390;2022-09-30T17:20:08;94926.97;;;10.71;88.60
46638;BME280;32365;46.938;7.390;2022-09-30T17:22:34;94922.44;;;10.61;89.60
46638;BME280;32365;46.938;7.390;2022-09-30T17:25:01;94930.16;;;10.56;89.89
46638;BME280;32365;46.938;7.390;2022-09-30T17:27:28;94922.97;;;10.63;89.90
46638;BME280;32365;46.938;7.390;2022-09-30T17:29:55;94933.84;;;10.83;89.04
46638;BME280;32365;46.938;7.390;2022-09-30T17:32:21;94929.75;;;10.87;87.97
46638;BME280;32365;46.938;7.390;2022-09-30T17:34:48;94932.19;;;10.93;87.74
46638;BME280;32365;46.938;7.390;2022-09-30T17:37:15;94935.16;;;10.85;87.84
46638;BME280;32365;46.938;7.390;2022-09-30T17:39:43;94938.81;;;10.67;88.32
46638;BME280;32365;46.938;7.390;2022-09-30T17:42:10;94943.41;;;10.43;89.86
46638;BME280;32365;46.938;7.390;2022-09-30T17:44:56;94951.31;;;10.36;91.24
46638;BME280;32365;46.938;7.390;2022-09-30T17:47:23;94946.84;;;10.31;91.48
46638;BME280;32365;46.938;7.390;2022-09-30T17:49:51;94945.81;;;10.15;92.31
46638;BME280;32365;46.938;7.390;2022-09-30T17:52:17;94943.84;;;10.06;92.70
46638;BME280;32365;46.938;7.390;2022-09-30T17:54:44;94945.63;;;10.05;93.19
46638;BME280;32365;46.938;7.390;2022-09-30T17:57:11;94949.34;;;10.09;93.29
46638;BME280;32365;46.938;7.390;2022-09-30T17:59:38;94957.84;;;9.93;93.96
46638;BME280;32365;46.938;7.390;2022-09-30T18:02:09;94955.91;;;9.83;94.76
46638;BME280;32365;46.938;7.390;2022-09-30T18:04:37;94961.06;;;9.83;94.04
46638;BME280;32365;46.938;7.390;2022-09-30T18:07:03;94958.09;;;9.91;93.03
46638;BME280;32365;46.938;7.390;2022-09-30T18:09:30;94960.06;;;10.01;92.96
46638;BME280;32365;46.938;7.390;2022-09-30T18:11:58;94972.19;;;9.83;93.03
46638;BME280;32365;46.938;7.390;2022-09-30T18:14:24;94981.16;;;9.64;93.84
46638;BME280;32365;46.938;7.390;2022-09-30T18:16:52;94967.31;;;9.41;95.14
46638;BME280;32365;46.938;7.390;2022-09-30T18:19:20;94970.41;;;9.26;96.38
46638;BME280;32365;46.938;7.390;2022-09-30T18:21:46;94968.13;;;9.30;95.73
46638;BME280;32365;46.938;7.390;2022-09-30T18:24:13;94966.25;;;9.25;96.55
46638;BME280;32365;46.938;7.390;2022-09-30T18:26:39;94968.59;;;9.15;96.54
46638;BME280;32365;46.938;7.390;2022-09-30T18:29:05;94974.81;;;9.14;96.94
46638;BME280;32365;46.938;7.390;2022-09-30T18:31:32;94982.91;;;8.93;97.60
46638;BME280;32365;46.938;7.390;2022-09-30T18:34:00;94983.91;;;8.92;98.28
46638;BME280;32365;46.938;7.390;2022-09-30T18:36:28;94990.66;;;8.93;97.80
46638;BME280;32365;46.938;7.390;2022-09-30T18:38:56;94987.41;;;8.86;98.72
46638;BME280;32365;46.938;7.390;2022-09-30T18:41:23;94998.06;;;8.90;99.39
46638;BME280;32365;46.938;7.390;2022-09-30T18:43:49;95002.09;;;8.74;98.93
46638;BME280;32365;46.938;7.390;2022-09-30T18:46:23;95008.50;;;8.71;98.86
46638;BME280;32365;46.938;7.390;2022-09-30T18:48:49;95008.84;;;8.63;99.01
46638;BME280;32365;46.938;7.390;2022-09-30T18:51:18;95017.47;;;8.57;100.00
46638;BME280;32365;46.938;7.390;2022-09-30T18:53:45;95023.19;;;8.59;100.00
46638;BME280;32365;46.938;7.390;2022-09-30T18:56:17;95035.53;;;8.57;100.00
46638;BME280;32365;46.938;7.390;2022-09-30T18:58:47;95030.03;;;8.53;100.00
46638;BME280;32365;46.938;7.390;2022-09-30T19:01:13;95037.50;;;8.43;100.00
46638;BME280;32365;46.938;7.390;2022-09-30T19:03:40;95035.69;;;8.43;100.00
46638;BME280;32365;46.938;7.390;2022-09-30T19:06:07;95030.41;;;8.26;100.00
46638;BME280;32365;46.938;7.390;2022-09-30T19:08:34;95029.97;;;8.29;100.00
46638;BME280;32365;46.938;7.390;2022-09-30T19:11:05;95028.44;;;8.40;100.00
46638;BME280;32365;46.938;7.390;2022-09-30T19:13:39;95024.38;;;8.32;100.00
46638;BME280;32365;46.938;7.390;2022-09-30T19:16:06;95028.63;;;8.39;100.00
46638;BME280;32365;46.938;7.390;2022-09-30T19:18:33;95024.13;;;8.34;100.00
46638;BME280;32365;46.938;7.390;2022-09-30T19:21:04;95033.13;;;8.31;100.00
46638;BME280;32365;46.938;7.390;2022-09-30T19:23:31;95038.47;;;8.18;100.00
46638;BME280;32365;46.938;7.390;2022-09-30T19:25:58;95040.28;;;8.18;100.00
46638;BME280;32365;46.938;7.390;2022-09-30T19:28:28;95045.31;;;8.24;100.00
46638;BME280;32365;46.938;7.390;2022-09-30T19:30:55;95047.19;;;8.17;100.00
46638;BME280;32365;46.938;7.390;2022-09-30T19:33:23;95051.59;;;8.16;100.00
46638;BME280;32365;46.938;7.390;2022-09-30T19:35:59;95052.22;;;8.12;100.00
46638;BME280;32365;46.938;7.390;2022-09-30T19:38:28;95055.47;;;8.07;100.00
46638;BME280;32365;46.938;7.390;2022-09-30T19:40:55;95055.34;;;8.02;100.00
46638;BME280;32365;46.938;7.390;2022-09-30T19:43:22;95050.03;;;7.97;100.00
46638;BME280;32365;46.938;7.390;2022-09-30T19:45:53;95062.16;;;7.96;100.00
46638;BME280;32365;46.938;7.390;2022-09-30T19:48:20;95059.66;;;7.90;100.00
46638;BME280;32365;46.938;7.390;2022-09-30T19:50:47;95069.41;;;7.88;100.00
46638;BME280;32365;46.938;7.390;2022-09-30T19:53:13;95070.84;;;7.83;100.00
46638;BME280;32365;46.938;7.390;2022-09-30T19:55:40;95070.06;;;7.83;100.00
46638;BME280;32365;46.938;7.390;2022-09-30T19:58:07;95064.34;;;7.81;100.00
46638;BME280;32365;46.938;7.390;2022-09-30T20:00:34;95074.88;;;7.79;100.00
46638;BME280;32365;46.938;7.390;2022-09-30T20:03:01;95077.44;;;7.79;100.00
46638;BME280;32365;46.938;7.390;2022-09-30T20:05:28;95079.28;;;7.72;100.00
46638;BME280;32365;46.938;7.390;2022-09-30T20:07:55;95077.66;;;7.78;100.00